Time;durP1;ratioP1;P1;durP2;ratioP2;P2;SDS_P1;SDS_P2;PMS_P1;PMS_P2;Temp;Humidity;BMP_temperature;BMP_pressure;BME280_temperature;BME280_humidity;BME280_pressure;Samples;Min_cycle;Max_cycle;Signal;HPM_P1;HPM_P2
2021/12/29 00:00:40;;;;;;;6.70;2.00;;;;;;;5.86;95.32;98982.86;103678;1330;62061;-77
2021/12/29 00:03:07;;;;;;;4.00;1.40;;;;;;;5.81;95.30;98988.16;103521;1330;61147;-77
2021/12/29 00:05:34;;;;;;;4.10;1.60;;;;;;;5.78;95.12;99000.75;103819;1330;75231;-77
2021/12/29 00:08:02;;;;;;;5.90;2.00;;;;;;;5.72;95.21;98998.42;103866;1330;70879;-77
2021/12/29 00:10:29;;;;;;;4.70;1.90;;;;;;;5.67;95.57;98994.60;103416;1330;73971;-77
2021/12/29 00:12:56;;;;;;;4.60;1.70;;;;;;;5.63;95.45;98995.45;103880;1330;62120;-77
2021/12/29 00:15:27;;;;;;;5.30;2.30;;;;;;;5.58;95.52;98997.69;103044;1340;60850;-78
2021/12/29 00:17:58;;;;;;;5.20;2.30;;;;;;;5.50;95.88;99003.11;103790;1329;74882;-77
2021/12/29 00:20:31;;;;;;;5.20;2.70;;;;;;;5.45;95.99;99008.66;103830;1329;71422;-77
2021/12/29 00:23:02;;;;;;;4.50;2.40;;;;;;;5.42;96.21;99010.81;103741;1333;72940;-78
2021/12/29 00:25:29;;;;;;;6.70;2.10;;;;;;;5.39;96.57;99013.96;103532;1333;63208;-77
2021/12/29 00:27:59;;;;;;;6.80;2.40;;;;;;;5.37;96.62;99021.39;103744;1330;60712;-77
2021/12/29 00:30:27;;;;;;;2.80;1.70;;;;;;;5.36;96.47;99035.23;103674;1330;75058;-77
2021/12/29 00:32:57;;;;;;;4.70;2.50;;;;;;;5.35;96.67;99034.58;103927;1330;71538;-77
2021/12/29 00:37:53;;;;;;;7.10;2.80;;;;;;;5.34;96.79;99049.06;103636;1315;59825;-76
2021/12/29 00:40:20;;;;;;;8.10;2.30;;;;;;;5.34;96.68;99055.11;103936;1330;59510;-77
2021/12/29 00:42:47;;;;;;;4.90;3.00;;;;;;;5.30;96.80;99065.77;103097;1338;75561;-77
2021/12/29 00:45:14;;;;;;;8.10;2.70;;;;;;;5.28;97.07;99070.98;103893;1334;58461;-77
2021/12/29 00:47:41;;;;;;;7.40;3.00;;;;;;;5.27;97.08;99075.98;103675;1334;73521;-77
2021/12/29 00:50:13;;;;;;;6.10;2.90;;;;;;;5.25;97.02;99085.83;103089;1332;62873;-76
2021/12/29 00:52:41;;;;;;;6.00;2.60;;;;;;;5.25;97.47;99091.00;103796;1331;60703;-77
2021/12/29 00:55:08;;;;;;;6.00;3.60;;;;;;;5.24;97.57;99098.42;103867;1334;74185;-77
2021/12/29 00:57:38;;;;;;;9.30;3.90;;;;;;;5.24;98.24;99102.98;103476;1334;72546;-77
2021/12/29 01:00:07;;;;;;;8.90;3.80;;;;;;;5.24;98.69;99104.57;103878;1336;74325;-77
2021/12/29 01:02:34;;;;;;;10.30;3.50;;;;;;;5.25;99.02;99105.19;103600;1331;62458;-78
2021/12/29 01:05:01;;;;;;;8.20;4.00;;;;;;;5.25;98.95;99105.48;103910;1331;62137;-78
2021/12/29 01:07:28;;;;;;;6.50;4.30;;;;;;;5.26;99.08;99109.25;103181;1336;74153;-79
2021/12/29 01:09:54;;;;;;;7.70;4.40;;;;;;;5.26;98.88;99111.20;103837;1334;58395;-78
2021/12/29 01:12:22;;;;;;;9.20;4.60;;;;;;;5.26;99.27;99110.30;103308;1336;71794;-78
2021/12/29 01:14:54;;;;;;;10.20;3.60;;;;;;;5.26;99.00;99112.40;103776;1330;62244;-78
2021/12/29 01:17:23;;;;;;;7.70;4.10;;;;;;;5.26;99.24;99112.50;103743;1330;60609;-77
2021/12/29 01:19:53;;;;;;;10.00;4.30;;;;;;;5.27;99.26;99122.22;103778;1330;74168;-78
2021/12/29 01:22:21;;;;;;;10.70;4.40;;;;;;;5.29;99.40;99125.03;103877;1330;71660;-78
2021/12/29 01:24:48;;;;;;;10.60;4.80;;;;;;;5.30;99.26;99125.73;103831;1330;73980;-77
2021/12/29 01:27:16;;;;;;;8.90;4.50;;;;;;;5.31;99.25;99129.88;103127;1339;62612;-77
2021/12/29 01:29:43;;;;;;;8.60;4.90;;;;;;;5.33;99.52;99134.23;103208;1334;60620;-77
2021/12/29 01:32:09;;;;;;;6.90;4.10;;;;;;;5.35;99.60;99135.56;103875;1330;73505;-77
2021/12/29 01:34:36;;;;;;;8.90;4.50;;;;;;;5.38;99.65;99138.55;103737;1330;72392;-77
2021/12/29 01:37:03;;;;;;;7.90;5.00;;;;;;;5.39;99.23;99141.88;103792;1330;72053;-77
2021/12/29 01:39:30;;;;;;;12.10;6.40;;;;;;;5.40;99.40;99143.00;103805;1317;63403;-76
2021/12/29 01:41:58;;;;;;;8.40;4.90;;;;;;;5.40;99.25;99147.05;103666;1314;62953;-76
2021/12/29 01:44:27;;;;;;;12.90;6.60;;;;;;;5.40;99.12;99150.04;103402;1317;76666;-76
2021/12/29 01:46:56;;;;;;;7.10;4.70;;;;;;;5.40;99.37;99155.67;104015;1308;71598;-77
2021/12/29 01:49:23;;;;;;;7.40;4.10;;;;;;;5.40;99.25;99168.63;103273;1330;71776;-77
2021/12/29 01:52:01;;;;;;;8.60;4.90;;;;;;;5.40;99.06;99176.05;103897;1327;62313;-78
2021/12/29 01:54:34;;;;;;;9.70;4.50;;;;;;;5.39;99.29;99168.42;103995;1329;61662;-78
2021/12/29 01:57:02;;;;;;;10.30;5.40;;;;;;;5.39;99.09;99167.48;103991;1330;73698;-77
2021/12/29 01:59:29;;;;;;;8.00;4.90;;;;;;;5.41;99.13;99170.31;103938;1333;72675;-77
2021/12/29 02:01:56;;;;;;;9.60;5.60;;;;;;;5.42;99.17;99171.88;103900;1330;73159;-77
2021/12/29 02:04:23;;;;;;;9.20;5.10;;;;;;;5.43;99.36;99176.49;103619;1330;63373;-77
2021/12/29 02:06:50;;;;;;;10.10;5.90;;;;;;;5.45;99.03;99180.16;103915;1327;60677;-78
2021/12/29 02:09:17;;;;;;;9.80;4.70;;;;;;;5.45;98.80;99179.08;103757;1334;74219;-77
2021/12/29 02:11:45;;;;;;;9.20;5.10;;;;;;;5.46;99.00;99180.94;103801;1327;72533;-77
2021/12/29 02:14:12;;;;;;;8.50;5.10;;;;;;;5.46;98.62;99184.46;104041;1327;72948;-77
2021/12/29 02:16:39;;;;;;;9.90;6.50;;;;;;;5.46;98.28;99189.36;103520;1327;61061;-77
2021/12/29 02:19:10;;;;;;;8.30;4.40;;;;;;;5.46;98.60;99194.35;104021;1328;60584;-77
2021/12/29 02:21:38;;;;;;;9.00;5.20;;;;;;;5.47;98.48;99196.59;103916;1330;74736;-77
2021/12/29 02:26:38;;;;;;;11.30;5.70;;;;;;;5.55;99.30;99208.47;103487;1331;73148;-78
2021/12/29 02:29:09;;;;;;;6.20;4.40;;;;;;;5.61;99.14;99208.95;103988;1331;63063;-77
2021/12/29 02:31:36;;;;;;;10.80;5.10;;;;;;;5.65;98.78;99211.94;103934;1330;62120;-77
2021/12/29 02:34:05;;;;;;;8.10;4.90;;;;;;;5.69;98.80;99219.91;103610;1332;73853;-78
2021/12/29 02:36:32;;;;;;;9.40;5.10;;;;;;;5.73;98.91;99216.16;103943;1334;72436;-77
2021/12/29 02:38:59;;;;;;;25.80;13.10;;;;;;;5.77;98.50;99224.84;103964;1330;73179;-78
2021/12/29 02:41:27;;;;;;;17.00;10.10;;;;;;;5.79;98.46;99232.12;103778;1334;62479;-78
2021/12/29 02:44:00;;;;;;;10.40;6.00;;;;;;;5.79;98.10;99235.67;103856;1317;61810;-75
2021/12/29 02:46:29;;;;;;;6.50;4.60;;;;;;;5.78;98.27;99231.90;103773;1316;76685;-77
2021/12/29 02:49:02;;;;;;;8.70;6.10;;;;;;;5.78;98.00;99244.48;103886;1313;71764;-77
2021/12/29 02:51:30;;;;;;;10.00;5.60;;;;;;;5.77;98.07;99252.15;104154;1327;72998;-78
2021/12/29 02:53:58;;;;;;;10.50;5.90;;;;;;;5.77;97.90;99260.39;103412;1331;62452;-77
2021/12/29 02:56:29;;;;;;;13.50;6.90;;;;;;;5.76;98.06;99265.96;104068;1315;60899;-75
2021/12/29 02:58:57;;;;;;;10.90;6.30;;;;;;;5.76;98.00;99270.92;103601;1315;76532;-76
2021/12/29 03:01:24;;;;;;;12.40;6.50;;;;;;;5.76;98.02;99272.14;103690;1317;72079;-77
2021/12/29 03:03:51;;;;;;;10.40;6.00;;;;;;;5.76;98.10;99274.65;103996;1330;72940;-78
2021/12/29 03:06:17;;;;;;;11.80;7.20;;;;;;;5.73;97.84;99279.10;103861;1330;60889;-78
2021/12/29 03:08:44;;;;;;;13.60;7.00;;;;;;;5.69;98.07;99274.76;103867;1329;58413;-79
2021/12/29 03:11:11;;;;;;;12.50;7.20;;;;;;;5.66;97.99;99264.99;103964;1330;74378;-78
2021/12/29 03:13:39;;;;;;;12.90;7.10;;;;;;;5.62;98.19;99260.53;103884;1331;71359;-78
2021/12/29 03:16:07;;;;;;;14.40;7.90;;;;;;;5.60;98.43;99267.28;103017;1337;73068;-78
2021/12/29 03:18:35;;;;;;;13.10;7.70;;;;;;;5.59;98.78;99266.41;103637;1334;62395;-78
2021/12/29 03:21:03;;;;;;;13.60;8.10;;;;;;;5.57;98.80;99266.83;103718;1327;61650;-78
2021/12/29 03:23:30;;;;;;;12.00;7.60;;;;;;;5.57;99.22;99271.52;103906;1329;74240;-78
2021/12/29 03:26:01;;;;;;;19.60;9.00;;;;;;;5.57;99.36;99275.93;103965;1328;71672;-78
2021/12/29 03:28:28;;;;;;;15.40;8.30;;;;;;;5.57;99.44;99278.72;103926;1330;73934;-78
2021/12/29 03:30:55;;;;;;;14.90;8.60;;;;;;;5.57;99.73;99278.23;104035;1330;62420;-77
2021/12/29 03:33:25;;;;;;;19.00;9.10;;;;;;;5.54;99.88;99281.86;103923;1323;61433;-78
2021/12/29 03:35:56;;;;;;;15.20;8.60;;;;;;;5.52;99.95;99281.36;104183;1327;73037;-78
2021/12/29 03:38:24;;;;;;;14.40;9.00;;;;;;;5.49;99.84;99284.15;104153;1327;72953;-77
2021/12/29 03:40:53;;;;;;;14.90;8.30;;;;;;;5.50;99.93;99294.01;103921;1328;74686;-77
2021/12/29 03:43:22;;;;;;;15.50;8.30;;;;;;;5.49;100.00;99292.95;103684;1332;62290;-78
2021/12/29 03:45:51;;;;;;;19.30;9.30;;;;;;;5.47;100.00;99290.66;103992;1328;61628;-78
2021/12/29 03:48:20;;;;;;;17.00;10.10;;;;;;;5.46;100.00;99296.73;104009;1327;74380;-77
2021/12/29 03:50:48;;;;;;;18.70;9.60;;;;;;;5.46;100.00;99300.67;103916;1331;72544;-78
2021/12/29 03:53:16;;;;;;;16.80;9.90;;;;;;;5.45;100.00;99301.80;103290;1337;73954;-78
2021/12/29 03:55:44;;;;;;;16.50;9.20;;;;;;;5.45;100.00;99305.38;104054;1327;62316;-78
2021/12/29 03:58:12;;;;;;;21.30;10.00;;;;;;;5.44;100.00;99311.04;103808;1327;61661;-77
2021/12/29 04:00:38;;;;;;;14.60;8.90;;;;;;;5.43;100.00;99314.34;103954;1328;75246;-77
2021/12/29 04:03:05;;;;;;;18.40;11.30;;;;;;;5.41;100.00;99314.52;103657;1327;71610;-77
2021/12/29 04:05:33;;;;;;;19.20;9.80;;;;;;;5.41;100.00;99316.77;104011;1323;74116;-77
2021/12/29 04:08:01;;;;;;;13.30;7.30;;;;;;;5.41;100.00;99319.09;103873;1334;62272;-77
2021/12/29 04:10:29;;;;;;;19.20;10.40;;;;;;;5.41;100.00;99328.55;103657;1327;60815;-77
2021/12/29 04:12:56;;;;;;;18.80;9.60;;;;;;;5.42;100.00;99329.17;104191;1333;74221;-78
2021/12/29 04:15:25;;;;;;;21.90;9.00;;;;;;;5.43;100.00;99334.30;104108;1327;71497;-78
2021/12/29 04:17:57;;;;;;;18.30;8.00;;;;;;;5.45;100.00;99337.70;104216;1327;72215;-78
2021/12/29 04:23:15;;;;;;;16.50;8.30;;;;;;;5.48;100.00;99336.56;104224;1331;60680;-77
2021/12/29 04:25:46;;;;;;;16.10;7.50;;;;;;;5.49;100.00;99340.47;103338;1330;75398;-77
2021/12/29 04:28:20;;;;;;;14.40;8.10;;;;;;;5.49;100.00;99343.95;103322;1331;72501;-78
2021/12/29 04:30:49;;;;;;;13.10;7.50;;;;;;;5.51;100.00;99354.30;103564;1334;74026;-78
2021/12/29 04:38:16;;;;;;;14.60;7.20;;;;;;;5.57;100.00;99362.73;103788;1315;72855;-78
2021/12/29 04:40:43;;;;;;;14.60;7.40;;;;;;;5.58;100.00;99365.55;103863;1330;71454;-78
2021/12/29 04:43:10;;;;;;;18.10;8.10;;;;;;;5.60;100.00;99373.80;103774;1334;72998;-78
2021/12/29 04:45:37;;;;;;;14.60;6.60;;;;;;;5.62;100.00;99380.68;103262;1333;63204;-78
2021/12/29 04:48:11;;;;;;;13.20;6.90;;;;;;;5.64;100.00;99382.05;103885;1330;59451;-78
2021/12/29 04:50:39;;;;;;;12.30;6.70;;;;;;;5.65;100.00;99388.56;103823;1329;73480;-77
2021/12/29 04:53:08;;;;;;;12.90;7.70;;;;;;;5.67;100.00;99393.81;103881;1330;71423;-77
2021/12/29 04:55:36;;;;;;;13.00;7.60;;;;;;;5.70;100.00;99401.21;103717;1330;73028;-77
2021/12/29 04:58:03;;;;;;;13.20;7.10;;;;;;;5.70;100.00;99403.45;103743;1334;60693;-77
2021/12/29 05:00:31;;;;;;;12.50;7.10;;;;;;;5.70;100.00;99403.98;103890;1330;61834;-79
2021/12/29 05:02:58;;;;;;;13.50;6.40;;;;;;;5.70;100.00;99412.36;103815;1330;74379;-78
2021/12/29 05:10:46;;;;;;;11.80;6.70;;;;;;;5.68;100.00;99418.44;103074;1345;62090;-78
2021/12/29 05:13:15;;;;;;;11.90;7.10;;;;;;;5.68;100.00;99421.07;103928;1329;60405;-77
2021/12/29 05:15:41;;;;;;;9.70;5.80;;;;;;;5.68;100.00;99427.14;103876;1330;73275;-77
2021/12/29 05:18:10;;;;;;;9.10;5.60;;;;;;;5.69;100.00;99428.84;103715;1332;72449;-77
2021/12/29 05:20:37;;;;;;;9.10;5.20;;;;;;;5.70;100.00;99430.00;103465;1335;74047;-77
2021/12/29 05:23:04;;;;;;;9.50;5.00;;;;;;;5.69;100.00;99434.77;103526;1330;306550;-77
2021/12/29 05:25:31;;;;;;;12.50;5.40;;;;;;;5.70;100.00;99437.09;103676;1336;60677;-77
2021/12/29 05:27:57;;;;;;;10.60;4.90;;;;;;;5.72;100.00;99444.42;103765;1330;75150;-77
2021/12/29 05:30:26;;;;;;;8.80;4.10;;;;;;;5.76;100.00;99448.67;103453;1333;71460;-77
2021/12/29 05:32:53;;;;;;;8.80;4.80;;;;;;;5.78;100.00;99455.44;103758;1315;71878;-77
2021/12/29 05:35:25;;;;;;;16.10;7.20;;;;;;;5.79;100.00;99453.66;104114;1328;63134;-77
2021/12/29 05:37:51;;;;;;;12.10;6.50;;;;;;;5.81;100.00;99458.02;103950;1331;59562;-77
2021/12/29 05:40:18;;;;;;;9.70;4.70;;;;;;;5.83;100.00;99458.34;104221;1327;75219;-77
2021/12/29 05:42:45;;;;;;;11.50;4.70;;;;;;;5.84;100.00;99461.31;104238;1327;59723;-76
2021/12/29 05:45:13;;;;;;;12.40;6.20;;;;;;;5.86;100.00;99458.91;103774;1334;73263;-77
2021/12/29 05:47:41;;;;;;;10.10;5.20;;;;;;;5.86;100.00;99463.58;104157;1328;61983;-77
2021/12/29 05:50:11;;;;;;;11.90;5.90;;;;;;;5.87;100.00;99460.88;104047;1328;60678;-76
2021/12/29 05:52:38;;;;;;;9.60;4.70;;;;;;;5.87;100.00;99468.41;103838;1326;75231;-76
2021/12/29 05:55:06;;;;;;;8.90;4.60;;;;;;;5.87;100.00;99472.22;104071;1331;72487;-77
2021/12/29 05:57:32;;;;;;;9.40;4.80;;;;;;;5.87;100.00;99468.00;104190;1326;72967;-77
2021/12/29 05:59:59;;;;;;;8.90;4.60;;;;;;;5.88;100.00;99474.22;104081;1327;62247;-76
2021/12/29 06:02:25;;;;;;;11.80;5.40;;;;;;;5.87;100.00;99482.45;104160;1331;63142;-77
2021/12/29 06:04:52;;;;;;;7.20;4.30;;;;;;;5.86;100.00;99484.27;103283;1334;74188;-77
2021/12/29 06:07:19;;;;;;;12.00;5.70;;;;;;;5.86;100.00;99487.95;103414;1334;58377;-77
2021/12/29 06:09:45;;;;;;;9.00;4.50;;;;;;;5.86;100.00;99488.80;104079;1333;74056;-77
2021/12/29 06:12:12;;;;;;;7.30;3.50;;;;;;;5.86;100.00;99494.49;104171;1327;64488;-77
2021/12/29 06:14:39;;;;;;;7.50;4.00;;;;;;;5.84;100.00;99500.10;104020;1328;60810;-77
2021/12/29 06:17:06;;;;;;;9.70;5.00;;;;;;;5.84;100.00;99501.38;103942;1330;74361;-77
2021/12/29 06:19:33;;;;;;;10.40;5.30;;;;;;;5.84;100.00;99505.72;104072;1328;72584;-76
2021/12/29 06:22:00;;;;;;;8.90;4.30;;;;;;;5.84;100.00;99505.36;103930;1330;73931;-77
2021/12/29 06:24:28;;;;;;;10.20;5.20;;;;;;;5.84;100.00;99504.05;104097;1327;62599;-77
2021/12/29 06:26:55;;;;;;;10.50;5.80;;;;;;;5.83;100.00;99508.37;103149;1336;60728;-77
2021/12/29 06:29:21;;;;;;;11.60;5.90;;;;;;;5.82;100.00;99514.20;104090;1327;74259;-77
2021/12/29 06:31:49;;;;;;;11.70;5.90;;;;;;;5.82;100.00;99517.74;104212;1331;71382;-77
2021/12/29 06:34:16;;;;;;;11.40;5.00;;;;;;;5.83;100.00;99524.28;103930;1328;74064;-77
2021/12/29 06:36:42;;;;;;;10.10;4.80;;;;;;;5.82;100.00;99528.58;103263;1337;62101;-77
2021/12/29 06:39:09;;;;;;;10.40;5.20;;;;;;;5.83;100.00;99529.59;103985;1333;60813;-76
2021/12/29 06:41:36;;;;;;;12.30;5.60;;;;;;;5.83;100.00;99535.55;104142;1326;74243;-75
2021/12/29 06:44:03;;;;;;;11.00;5.20;;;;;;;5.82;100.00;99535.62;103808;1315;72709;-77
2021/12/29 06:46:30;;;;;;;10.00;4.80;;;;;;;5.83;100.00;99541.34;103932;1331;72947;-76
2021/12/29 06:48:56;;;;;;;8.60;4.20;;;;;;;5.83;100.00;99541.34;103857;1330;63053;-75
2021/12/29 06:51:23;;;;;;;10.40;4.90;;;;;;;5.83;100.00;99552.55;103343;1335;61355;-76
2021/12/29 06:53:49;;;;;;;8.20;4.20;;;;;;;5.85;100.00;99556.91;103901;1330;74181;-76
2021/12/29 06:56:16;;;;;;;9.90;4.30;;;;;;;5.85;100.00;99568.81;103679;1336;72500;-76
2021/12/29 06:58:43;;;;;;;10.30;4.70;;;;;;;5.86;100.00;99577.42;103886;1330;72923;-76
2021/12/29 07:01:11;;;;;;;9.40;4.20;;;;;;;5.86;100.00;99590.45;103135;1337;62513;-76
2021/12/29 07:03:41;;;;;;;7.20;3.30;;;;;;;5.86;100.00;99596.74;103917;1329;59238;-77
2021/12/29 07:06:07;;;;;;;6.40;2.90;;;;;;;5.87;100.00;99602.64;103937;1330;74169;-76
2021/12/29 07:08:34;;;;;;;9.10;3.70;;;;;;;5.88;100.00;99607.83;103898;1330;72741;-76
2021/12/29 07:11:01;;;;;;;7.00;3.60;;;;;;;5.87;100.00;99613.45;103633;1331;74131;-77
2021/12/29 07:13:28;;;;;;;7.10;3.30;;;;;;;5.86;100.00;99624.14;103871;1330;62350;-76
2021/12/29 07:15:54;;;;;;;6.30;3.50;;;;;;;5.85;100.00;99627.73;103883;1330;58240;-77
2021/12/29 07:18:21;;;;;;;8.80;4.20;;;;;;;5.85;100.00;99634.61;103948;1330;74849;-76
2021/12/29 07:20:47;;;;;;;7.60;3.60;;;;;;;5.84;100.00;99637.15;103633;1331;71488;-77
2021/12/29 07:23:14;;;;;;;10.20;4.40;;;;;;;5.85;100.00;99640.23;103863;1331;73094;-76
2021/12/29 07:25:41;;;;;;;10.40;4.50;;;;;;;5.85;100.00;99641.83;103872;1330;63435;-77
2021/12/29 07:28:07;;;;;;;10.30;4.80;;;;;;;5.85;100.00;99646.81;103361;1337;60608;-77
2021/12/29 07:30:34;;;;;;;11.30;3.90;;;;;;;5.85;100.00;99647.50;103900;1331;58937;-77
2021/12/29 07:33:00;;;;;;;9.30;4.80;;;;;;;5.85;100.00;99652.64;103738;1330;71409;-76
2021/12/29 07:35:27;;;;;;;9.20;4.10;;;;;;;5.85;100.00;99655.08;103340;1331;72943;-77
2021/12/29 07:37:54;;;;;;;13.40;4.70;;;;;;;5.85;100.00;99656.88;103782;1330;58304;-76
2021/12/29 07:40:20;;;;;;;8.00;3.50;;;;;;;5.86;100.00;99658.20;103120;1338;62418;-77
2021/12/29 07:42:48;;;;;;;11.90;4.40;;;;;;;5.86;100.00;99661.45;103830;1333;74155;-77
2021/12/29 07:45:15;;;;;;;7.40;3.20;;;;;;;5.86;100.00;99663.20;103893;1334;71859;-77
2021/12/29 07:47:47;;;;;;;6.80;3.60;;;;;;;5.87;100.00;99661.79;103200;1333;71556;-77
2021/12/29 07:50:17;;;;;;;10.40;3.50;;;;;;;5.88;100.00;99665.17;103909;1330;61987;-77
2021/12/29 07:52:59;;;;;;;8.20;3.00;;;;;;;5.89;100.00;99668.73;103093;1337;60705;-77
2021/12/29 07:55:26;;;;;;;5.60;2.90;;;;;;;5.91;100.00;99676.08;103855;1333;74616;-77
2021/12/29 07:57:53;;;;;;;7.10;3.80;;;;;;;5.92;100.00;99681.17;103874;1327;71018;-82
2021/12/29 08:00:19;;;;;;;5.70;2.70;;;;;;;5.94;100.00;99689.41;103644;1333;74048;-81
2021/12/29 08:02:47;;;;;;;5.80;2.70;;;;;;;5.97;100.00;99692.45;103882;1330;63612;-81
2021/12/29 08:05:14;;;;;;;6.00;2.90;;;;;;;6.00;100.00;99698.26;103211;1334;60576;-81
2021/12/29 08:07:46;;;;;;;8.70;2.90;;;;;;;6.01;100.00;99700.92;103869;1330;74294;-80
2021/12/29 08:10:13;;;;;;;8.30;3.10;;;;;;;6.04;100.00;99713.30;103599;1330;71608;-80
2021/12/29 08:12:40;;;;;;;6.10;2.90;;;;;;;6.05;100.00;99711.01;103672;1332;73035;-79
2021/12/29 08:15:07;;;;;;;6.00;3.10;;;;;;;6.07;100.00;99701.63;103080;1334;62292;-80
2021/12/29 08:17:34;;;;;;;5.70;2.50;;;;;;;6.09;100.00;99697.77;103876;1331;61622;-79
2021/12/29 08:20:04;;;;;;;7.20;3.20;;;;;;;6.11;100.00;99693.62;103091;1338;74440;-80
2021/12/29 08:22:30;;;;;;;5.30;2.30;;;;;;;6.14;100.00;99700.71;103194;1332;72455;-79
2021/12/29 08:24:57;;;;;;;5.60;1.90;;;;;;;6.18;100.00;99703.69;103819;1331;73193;-80
2021/12/29 08:27:24;;;;;;;10.00;2.90;;;;;;;6.20;100.00;99707.86;103801;1330;62300;-78
2021/12/29 08:29:51;;;;;;;6.60;2.70;;;;;;;6.22;100.00;99708.79;103525;1330;59491;-76
2021/12/29 08:32:20;;;;;;;5.60;2.30;;;;;;;6.24;100.00;99711.61;103086;1338;73456;-77
2021/12/29 08:34:47;;;;;;;5.50;2.30;;;;;;;6.25;100.00;99719.67;103718;1333;72578;-78
2021/12/29 08:37:16;;;;;;;4.40;2.00;;;;;;;6.27;100.00;99724.41;103541;1335;73985;-78
2021/12/29 08:39:42;;;;;;;7.10;3.10;;;;;;;6.28;100.00;99726.04;103836;1330;62438;-78
2021/12/29 08:42:12;;;;;;;6.20;2.70;;;;;;;6.28;100.00;99728.47;103671;1330;60705;-79
2021/12/29 08:44:42;;;;;;;6.00;3.10;;;;;;;6.29;100.00;99728.23;103870;1337;74943;-80
2021/12/29 08:47:09;;;;;;;6.30;2.70;;;;;;;6.28;100.00;99731.95;103722;1330;71632;-81
2021/12/29 08:49:35;;;;;;;4.60;2.10;;;;;;;6.28;100.00;99731.61;103876;1330;73880;-79
2021/12/29 08:52:02;;;;;;;6.70;3.10;;;;;;;6.29;100.00;99731.52;103721;1333;62227;-79
2021/12/29 08:54:29;;;;;;;4.90;2.30;;;;;;;6.31;100.00;99732.88;103590;1333;60597;-80
2021/12/29 08:56:58;;;;;;;4.80;2.00;;;;;;;6.32;100.00;99737.48;103958;1336;75131;-79
2021/12/29 08:59:25;;;;;;;6.90;3.10;;;;;;;6.33;100.00;99739.55;103873;1330;58410;-77
2021/12/29 09:01:51;;;;;;;6.00;2.50;;;;;;;6.33;100.00;99737.91;103973;1334;72738;-79
2021/12/29 09:04:18;;;;;;;6.30;3.10;;;;;;;6.34;100.00;99747.52;103875;1330;62468;-79
2021/12/29 09:06:45;;;;;;;6.50;3.60;;;;;;;6.35;100.00;99743.86;103993;1331;61921;-81
2021/12/29 09:09:12;;;;;;;6.60;2.20;;;;;;;6.37;100.00;99744.38;103872;1327;75165;-81
2021/12/29 09:11:39;;;;;;;6.00;3.00;;;;;;;6.39;100.00;99740.85;103058;1340;72886;-79
2021/12/29 09:14:08;;;;;;;7.30;3.20;;;;;;;6.40;100.00;99750.33;103670;1333;72942;-78
2021/12/29 09:16:37;;;;;;;6.70;2.90;;;;;;;6.41;100.00;99751.42;103884;1334;62146;-81
2021/12/29 09:19:04;;;;;;;6.80;3.00;;;;;;;6.42;100.00;99758.52;103403;1330;60796;-81
2021/12/29 09:21:33;;;;;;;5.90;2.80;;;;;;;6.44;100.00;99759.89;103906;1330;75159;-81
2021/12/29 09:24:00;;;;;;;8.80;3.30;;;;;;;6.46;100.00;99761.27;103848;1330;72527;-80
2021/12/29 09:26:27;;;;;;;6.50;3.50;;;;;;;6.47;100.00;99769.27;103865;1330;72927;-78
2021/12/29 09:28:53;;;;;;;7.30;3.70;;;;;;;6.48;100.00;99776.02;103835;1330;58324;-78
2021/12/29 09:31:20;;;;;;;8.40;3.40;;;;;;;6.49;100.00;99770.94;103837;1328;62118;-77
2021/12/29 09:33:47;;;;;;;9.70;3.90;;;;;;;6.52;100.00;99774.77;103872;1330;75242;-79
2021/12/29 09:36:15;;;;;;;8.00;4.00;;;;;;;6.55;100.00;99770.85;103560;1334;72460;-82
2021/12/29 09:38:42;;;;;;;8.60;3.80;;;;;;;6.57;100.00;99777.13;103565;1332;72776;-81
2021/12/29 09:41:12;;;;;;;8.40;4.40;;;;;;;6.60;100.00;99783.83;103946;1330;62705;-77
2021/12/29 09:43:40;;;;;;;7.20;3.70;;;;;;;6.62;100.00;99789.55;103684;1333;62133;-78
2021/12/29 09:46:07;;;;;;;7.50;3.80;;;;;;;6.66;100.00;99793.00;103795;1330;75419;-80
2021/12/29 09:48:35;;;;;;;10.30;4.40;;;;;;;6.69;100.00;99796.64;103889;1330;73730;-80
2021/12/29 09:51:04;;;;;;;8.90;3.90;;;;;;;6.72;100.00;99798.64;103703;1336;73038;-79
2021/12/29 09:53:31;;;;;;;8.70;3.80;;;;;;;6.73;100.00;99800.27;103677;1331;62287;-79
2021/12/29 09:55:58;;;;;;;9.40;4.00;;;;;;;6.75;100.00;99791.96;103735;1334;61892;-79
2021/12/29 09:58:24;;;;;;;8.00;3.90;;;;;;;6.75;100.00;99797.89;103545;1320;74168;-76
2021/12/29 10:00:57;;;;;;;8.70;4.70;;;;;;;6.78;100.00;99794.42;104026;1324;58346;-77
2021/12/29 10:03:27;;;;;;;9.20;4.50;;;;;;;6.78;100.00;99800.19;103741;1328;72644;-77
2021/12/29 10:05:56;;;;;;;10.00;4.70;;;;;;;6.79;100.00;99802.73;104074;1329;62511;-80
2021/12/29 10:08:24;;;;;;;8.70;4.80;;;;;;;6.82;100.00;99801.36;104098;1324;60556;-77
2021/12/29 10:10:54;;;;;;;8.10;4.70;;;;;;;6.84;100.00;99796.17;103888;1326;74367;-78
2021/12/29 10:13:21;;;;;;;7.40;4.10;;;;;;;6.88;100.00;99791.67;104137;1327;70046;-81
2021/12/29 10:15:54;;;;;;;9.80;4.80;;;;;;;6.93;100.00;99800.96;103757;1330;73022;-78
2021/12/29 10:18:24;;;;;;;7.90;4.20;;;;;;;6.97;100.00;99811.34;103559;1328;61987;-77
2021/12/29 10:20:55;;;;;;;9.90;4.90;;;;;;;6.97;100.00;99817.27;103914;1330;61352;-78
2021/12/29 10:23:31;;;;;;;10.80;4.20;;;;;;;6.97;100.00;99820.92;104087;1328;74225;-80
2021/12/29 10:26:13;;;;;;;10.10;4.20;;;;;;;6.97;100.00;99816.98;103864;1330;71547;-79
2021/12/29 10:28:49;;;;;;;7.70;3.70;;;;;;;6.98;100.00;99818.94;103936;1331;72981;-80
2021/12/29 10:31:18;;;;;;;7.60;4.20;;;;;;;6.97;100.00;99812.84;104068;1327;62256;-78
2021/12/29 10:33:55;;;;;;;7.90;3.60;;;;;;;6.99;100.00;99819.46;103884;1328;61388;-81
2021/12/29 10:36:24;;;;;;;7.90;4.00;;;;;;;7.01;100.00;99827.73;103909;1330;74883;-80
2021/12/29 10:39:06;;;;;;;9.60;3.60;;;;;;;7.02;100.00;99832.13;104025;1328;70490;-81
2021/12/29 10:41:44;;;;;;;8.20;4.10;;;;;;;7.04;100.00;99839.02;103973;1327;73053;-80
2021/12/29 10:44:12;;;;;;;7.10;3.50;;;;;;;7.04;100.00;99838.39;103737;1330;61856;-79
2021/12/29 10:46:40;;;;;;;8.30;2.80;;;;;;;7.03;100.00;99836.94;103973;1328;61757;-78
2021/12/29 10:49:11;;;;;;;7.10;3.50;;;;;;;7.03;100.00;99837.05;103146;1336;74166;-78
2021/12/29 10:51:43;;;;;;;4.70;2.80;;;;;;;7.02;100.00;99842.16;103908;1332;72490;-78
2021/12/29 10:54:14;;;;;;;8.30;4.10;;;;;;;7.01;100.00;99846.39;103199;1336;74144;-79
2021/12/29 10:56:45;;;;;;;6.00;3.20;;;;;;;7.01;100.00;99846.38;103945;1327;62155;-80
2021/12/29 10:59:18;;;;;;;7.10;3.90;;;;;;;7.02;100.00;99861.05;103186;1330;60153;-81
2021/12/29 11:01:47;;;;;;;5.80;3.60;;;;;;;7.02;100.00;99862.20;103496;1331;74165;-78
2021/12/29 11:04:17;;;;;;;6.70;3.90;;;;;;;7.03;100.00;99858.60;103858;1330;71162;-78
2021/12/29 11:06:50;;;;;;;10.80;4.40;;;;;;;7.05;100.00;99860.88;103708;1334;72934;-77
2021/12/29 11:09:32;;;;;;;7.50;3.90;;;;;;;7.07;100.00;99864.97;103660;1333;61228;-79
2021/12/29 11:12:08;;;;;;;7.10;4.40;;;;;;;7.10;100.00;99858.71;104060;1327;60475;-78
2021/12/29 11:14:37;;;;;;;6.40;3.90;;;;;;;7.14;100.00;99859.10;103999;1330;74248;-80
2021/12/29 11:17:17;;;;;;;6.70;3.60;;;;;;;7.20;100.00;99853.30;103965;1331;71715;-79
2021/12/29 11:19:56;;;;;;;7.50;3.90;;;;;;;7.26;100.00;99853.90;103664;1336;72916;-78
2021/12/29 11:22:27;;;;;;;6.40;3.90;;;;;;;7.30;100.00;99853.92;103944;1330;62302;-80
2021/12/29 11:24:57;;;;;;;6.70;3.00;;;;;;;7.36;100.00;99854.52;103926;1330;60583;-78
2021/12/29 11:27:25;;;;;;;5.90;3.00;;;;;;;7.39;100.00;99852.77;103728;1330;74147;-78
2021/12/29 11:29:57;;;;;;;5.60;3.20;;;;;;;7.43;100.00;99851.30;103248;1329;71543;-78
2021/12/29 11:32:28;;;;;;;5.50;3.20;;;;;;;7.44;100.00;99852.14;103863;1330;74254;-79
2021/12/29 11:35:04;;;;;;;5.50;3.30;;;;;;;7.48;100.00;99841.34;104009;1328;62201;-79
2021/12/29 11:37:31;;;;;;;5.00;2.80;;;;;;;7.50;100.00;99837.77;103932;1330;61816;-80
2021/12/29 11:39:57;;;;;;;4.60;2.70;;;;;;;7.53;100.00;99848.14;103994;1334;74385;-80
2021/12/29 11:42:24;;;;;;;5.80;3.80;;;;;;;7.53;100.00;99844.78;103905;1329;72498;-81
2021/12/29 11:44:51;;;;;;;5.20;3.10;;;;;;;7.54;100.00;99836.59;103880;1331;74503;-79
2021/12/29 11:47:21;;;;;;;6.80;3.20;;;;;;;7.54;100.00;99840.62;103972;1327;62273;-80